Time,TemperatureF,DewpointF,PressureIn,WindDirection,WindDirectionDegrees,WindSpeedMPH,WindSpeedGustMPH,Humidity,HourlyPrecipIn,Conditions,Clouds,dailyrainin,SoftwareType,DateUTC
2013-04-03 00:00:00,53.8,43.5,30.01,SE,135,10.0,19.0,68,0.00,,,0.02,meteohub,2013-04-03 05:00:00,
2013-04-03 00:05:00,53.8,43.5,30.01,SSE,158,8.0,19.0,68,0.00,,,0.00,meteohub,2013-04-03 05:05:00,
2013-04-03 00:10:00,53.8,43.5,30.00,South,180,10.0,15.0,68,0.00,,,0.00,meteohub,2013-04-03 05:10:00,
2013-04-03 00:15:00,53.8,43.5,30.00,East,90,11.0,15.0,68,0.00,,,0.00,meteohub,2013-04-03 05:15:00,
2013-04-03 00:21:00,53.8,43.5,30.00,SE,135,16.0,16.0,68,0.00,,,0.00,meteohub,2013-04-03 05:21:00,
2013-04-03 00:26:00,53.8,43.5,30.00,SE,135,6.0,17.0,68,0.00,,,0.00,meteohub,2013-04-03 05:26:00,
2013-04-03 00:31:00,53.8,43.5,29.99,East,90,17.0,17.0,68,0.00,,,0.00,meteohub,2013-04-03 05:31:00,
2013-04-03 00:36:00,53.8,43.5,30.00,SE,135,11.0,17.0,68,0.00,,,0.00,meteohub,2013-04-03 05:36:00,
2013-04-03 00:41:00,53.8,43.5,30.00,NE,45,6.0,17.0,68,0.00,,,0.00,meteohub,2013-04-03 05:41:00,
2013-04-03 00:46:00,54.0,43.7,29.99,South,180,13.0,17.0,68,0.00,,,0.00,meteohub,2013-04-03 05:46:00,
2013-04-03 00:51:00,54.0,43.7,29.99,SE,135,5.0,13.0,68,0.00,,,0.00,meteohub,2013-04-03 05:51:00,
2013-04-03 00:56:00,54.1,43.9,29.99,East,90,7.0,13.0,68,0.00,,,0.00,meteohub,2013-04-03 05:56:00,
2013-04-03 01:01:00,54.3,44.1,29.99,SSE,158,7.0,15.0,68,0.00,,,0.00,meteohub,2013-04-03 06:01:00,
2013-04-03 01:06:00,54.3,44.1,30.00,SSE,158,7.0,15.0,68,0.00,,,0.00,meteohub,2013-04-03 06:06:00,
2013-04-03 01:11:00,54.5,44.2,30.01,ESE,113,4.0,11.0,68,0.00,,,0.00,meteohub,2013-04-03 06:11:00,
2013-04-03 01:16:00,54.7,44.8,30.03,NW,315,4.0,7.0,69,0.00,,,0.00,meteohub,2013-04-03 06:16:00,
2013-04-03 01:21:00,55.0,45.1,30.04,NE,45,5.0,7.0,69,0.00,,,0.00,meteohub,2013-04-03 06:21:00,
2013-04-03 01:26:00,55.2,45.1,30.04,North,0,3.0,7.0,69,0.00,,,0.00,meteohub,2013-04-03 06:26:00,
2013-04-03 01:31:00,55.2,45.1,30.03,North,0,4.0,7.0,69,0.00,,,0.00,meteohub,2013-04-03 06:31:00,
2013-04-03 01:36:00,55.4,45.3,30.05,NW,315,4.0,7.0,69,0.00,,,0.00,meteohub,2013-04-03 06:36:00,
2013-04-03 01:41:00,55.4,46.2,30.06,North,0,4.0,6.0,71,0.00,,,0.00,meteohub,2013-04-03 06:41:00,
2013-04-03 01:46:00,54.9,46.4,30.06,North,0,5.0,6.0,73,0.00,,,0.00,meteohub,2013-04-03 06:46:00,
2013-04-03 01:52:00,54.3,46.9,30.06,North,0,3.0,8.0,76,0.01,,,0.01,meteohub,2013-04-03 06:52:00,
2013-04-03 01:57:00,54.0,47.7,30.07,NW,315,6.0,8.0,79,0.01,,,0.01,meteohub,2013-04-03 06:57:00,
2013-04-03 02:02:00,53.4,47.7,30.07,NW,315,5.0,7.0,81,0.02,,,0.02,meteohub,2013-04-03 07:02:00,
2013-04-03 02:07:00,52.9,48.2,30.06,NW,315,4.0,9.0,84,0.02,,,0.02,meteohub,2013-04-03 07:07:00,
2013-04-03 02:12:00,52.7,48.6,30.07,NW,315,5.0,9.0,86,0.02,,,0.02,meteohub,2013-04-03 07:12:00,
2013-04-03 02:17:00,52.2,48.7,30.07,North,0,3.0,9.0,88,0.04,,,0.04,meteohub,2013-04-03 07:17:00,
2013-04-03 02:22:00,52.0,49.1,30.07,NW,315,4.0,8.0,90,0.04,,,0.04,meteohub,2013-04-03 07:22:00,
2013-04-03 02:27:00,52.0,49.5,30.07,North,0,4.0,10.0,91,0.04,,,0.04,meteohub,2013-04-03 07:27:00,
2013-04-03 02:32:00,52.0,49.5,30.07,NW,315,4.0,10.0,91,0.04,,,0.04,meteohub,2013-04-03 07:32:00,
2013-04-03 02:37:00,51.8,49.6,30.07,North,0,4.0,8.0,92,0.04,,,0.04,meteohub,2013-04-03 07:37:00,
2013-04-03 02:42:00,52.0,49.6,30.07,NE,45,4.0,6.0,92,0.04,,,0.04,meteohub,2013-04-03 07:42:00,
2013-04-03 02:47:00,51.8,49.8,30.07,NW,315,5.0,6.0,93,0.04,,,0.04,meteohub,2013-04-03 07:47:00,
2013-04-03 02:52:00,51.6,50.0,30.08,NW,315,6.0,6.0,94,0.06,,,0.07,meteohub,2013-04-03 07:52:00,
2013-04-03 02:57:00,51.4,50.0,30.08,West,270,3.0,6.0,95,0.08,,,0.09,meteohub,2013-04-03 07:57:00,
2013-04-03 03:02:00,51.4,50.0,30.08,NW,315,2.0,6.0,95,0.08,,,0.11,meteohub,2013-04-03 08:02:00,
2013-04-03 03:07:00,51.4,50.4,30.08,NW,315,3.0,6.0,96,0.08,,,0.11,meteohub,2013-04-03 08:07:00,
2013-04-03 03:12:00,51.4,50.4,30.09,NW,315,3.0,5.0,96,0.09,,,0.12,meteohub,2013-04-03 08:12:00,
2013-04-03 03:17:00,51.4,50.4,30.09,West,270,1.0,4.0,96,0.09,,,0.13,meteohub,2013-04-03 08:17:00,
2013-04-03 03:22:00,51.6,50.7,30.09,NW,315,2.0,4.0,97,0.11,,,0.14,meteohub,2013-04-03 08:22:00,
2013-04-03 03:27:00,51.6,50.7,30.08,NE,45,7.0,7.0,97,0.12,,,0.15,meteohub,2013-04-03 08:27:00,
2013-04-03 03:32:00,51.3,50.4,30.09,North,0,2.0,7.0,97,0.13,,,0.17,meteohub,2013-04-03 08:32:00,
2013-04-03 03:37:00,51.3,50.4,30.08,NW,315,2.0,7.0,97,0.14,,,0.18,meteohub,2013-04-03 08:37:00,
2013-04-03 03:42:00,51.1,50.2,30.08,North,0,2.0,7.0,97,0.15,,,0.19,meteohub,2013-04-03 08:42:00,
2013-04-03 03:47:00,51.1,50.2,30.08,NE,45,3.0,4.0,97,0.14,,,0.20,meteohub,2013-04-03 08:47:00,
2013-04-03 03:52:00,50.9,50.0,30.08,North,0,3.0,4.0,97,0.13,,,0.21,meteohub,2013-04-03 08:52:00,
2013-04-03 03:57:00,50.7,49.8,30.08,NE,45,2.0,4.0,97,0.12,,,0.22,meteohub,2013-04-03 08:57:00,
2013-04-03 04:02:00,50.7,49.8,30.08,SE,135,2.0,4.0,97,0.13,,,0.24,meteohub,2013-04-03 09:02:00,
2013-04-03 04:07:00,50.7,49.8,30.07,ESE,113,4.0,6.0,97,0.13,,,0.24,meteohub,2013-04-03 09:07:00,
2013-04-03 04:13:00,50.5,50.0,30.06,South,180,6.0,6.0,98,0.13,,,0.26,meteohub,2013-04-03 09:13:00,
2013-04-03 04:18:00,50.4,49.8,30.06,NE,45,4.0,6.0,98,0.14,,,0.27,meteohub,2013-04-03 09:18:00,
2013-04-03 04:23:00,50.4,49.8,30.07,East,90,4.0,6.0,98,0.13,,,0.27,meteohub,2013-04-03 09:23:00,
2013-04-03 04:28:00,50.4,49.8,30.06,ENE,68,6.0,6.0,98,0.12,,,0.28,meteohub,2013-04-03 09:28:00,
2013-04-03 04:33:00,50.4,50.0,30.05,East,90,4.0,6.0,99,0.13,,,0.30,meteohub,2013-04-03 09:33:00,
2013-04-03 04:38:00,50.2,49.8,30.05,NE,45,6.0,8.0,99,0.13,,,0.31,meteohub,2013-04-03 09:38:00,
2013-04-03 04:43:00,50.2,49.8,30.04,East,90,7.0,8.0,99,0.14,,,0.33,meteohub,2013-04-03 09:43:00,
2013-04-03 04:48:00,50.0,49.6,30.03,East,90,15.0,15.0,99,0.13,,,0.33,meteohub,2013-04-03 09:48:00,
2013-04-03 04:53:00,50.0,49.6,30.02,SE,135,17.0,17.0,99,0.13,,,0.34,meteohub,2013-04-03 09:53:00,
2013-04-03 04:58:00,49.8,49.5,30.01,SE,135,14.0,17.0,99,0.14,,,0.37,meteohub,2013-04-03 09:58:00,
2013-04-03 05:03:00,49.8,49.5,29.99,SE,135,10.0,19.0,99,0.14,,,0.38,meteohub,2013-04-03 10:03:00,
2013-04-03 05:08:00,49.8,49.5,30.00,SE,135,10.0,19.0,99,0.14,,,0.39,meteohub,2013-04-03 10:08:00,
2013-04-03 05:13:00,49.5,49.3,29.99,East,90,10.0,19.0,99,0.17,,,0.43,meteohub,2013-04-03 10:13:00,
2013-04-03 05:18:00,49.3,49.1,29.99,East,90,12.0,18.0,99,0.15,,,0.43,meteohub,2013-04-03 10:18:00,
2013-04-03 05:23:00,49.3,49.1,29.98,SE,135,17.0,18.0,99,0.17,,,0.45,meteohub,2013-04-03 10:23:00,
2013-04-03 05:28:00,49.3,49.1,29.98,NE,45,12.0,18.0,99,0.18,,,0.46,meteohub,2013-04-03 10:28:00,
2013-04-03 05:33:00,49.3,49.1,29.97,NE,45,16.0,17.0,99,0.17,,,0.47,meteohub,2013-04-03 10:33:00,
2013-04-03 05:38:00,49.3,49.1,29.96,East,90,15.0,17.0,99,0.17,,,0.48,meteohub,2013-04-03 10:38:00,
2013-04-03 05:43:00,49.1,48.9,29.97,East,90,14.0,20.0,99,0.17,,,0.50,meteohub,2013-04-03 10:43:00,
2013-04-03 05:48:00,49.1,48.9,29.97,SE,135,8.0,20.0,99,0.15,,,0.50,meteohub,2013-04-03 10:48:00,
2013-04-03 05:53:00,49.1,48.9,29.97,South,180,13.0,20.0,99,0.15,,,0.51,meteohub,2013-04-03 10:53:00,
2013-04-03 05:58:00,49.1,48.9,30.00,North,0,5.0,16.0,99,0.13,,,0.51,meteohub,2013-04-03 10:58:00,
2013-04-03 06:03:00,49.3,49.1,30.00,North,0,6.0,13.0,99,0.12,,,0.51,meteohub,2013-04-03 11:03:00,
2013-04-03 06:08:00,49.3,49.1,29.99,East,90,8.0,13.0,99,0.12,,,0.51,meteohub,2013-04-03 11:08:00,
2013-04-03 06:13:00,49.1,48.9,29.99,SW,225,19.0,19.0,99,0.08,,,0.51,meteohub,2013-04-03 11:13:00,
2013-04-03 06:18:00,49.3,49.1,30.00,East,90,8.0,19.0,99,0.08,,,0.52,meteohub,2013-04-03 11:18:00,
2013-04-03 06:23:00,49.3,49.1,30.01,NE,45,7.0,19.0,99,0.07,,,0.52,meteohub,2013-04-03 11:23:00,
2013-04-03 06:28:00,49.3,49.1,30.04,NE,45,7.0,19.0,99,0.06,,,0.52,meteohub,2013-04-03 11:28:00,
2013-04-03 06:33:00,49.8,49.5,30.04,North,0,6.0,11.0,99,0.05,,,0.52,meteohub,2013-04-03 11:33:00,
2013-04-03 06:38:00,50.0,49.6,30.05,NW,315,4.0,8.0,99,0.04,,,0.52,meteohub,2013-04-03 11:38:00,
2013-04-03 06:43:00,50.0,49.6,30.06,NW,315,4.0,7.0,99,0.04,,,0.53,meteohub,2013-04-03 11:43:00,
2013-04-03 06:48:00,50.2,49.8,30.06,East,90,3.0,8.0,99,0.04,,,0.53,meteohub,2013-04-03 11:48:00,
2013-04-03 06:53:00,50.2,49.8,30.06,NW,315,4.0,8.0,99,0.02,,,0.53,meteohub,2013-04-03 11:53:00,
2013-04-03 06:58:00,50.0,49.6,30.07,NW,315,4.0,8.0,99,0.04,,,0.54,meteohub,2013-04-03 11:58:00,
2013-04-03 07:03:00,50.0,49.6,30.07,North,0,8.0,10.0,99,0.04,,,0.54,meteohub,2013-04-03 12:03:00,
2013-04-03 07:08:00,49.3,49.1,30.08,NW,315,4.0,10.0,99,0.04,,,0.54,meteohub,2013-04-03 12:08:00,
2013-04-03 07:13:00,49.3,49.1,30.08,NE,45,4.0,10.0,99,0.04,,,0.54,meteohub,2013-04-03 12:13:00,
2013-04-03 07:18:00,49.3,49.1,30.08,North,0,7.0,8.0,99,0.02,,,0.54,meteohub,2013-04-03 12:18:00,
2013-04-03 07:23:00,48.9,48.7,30.09,NE,45,6.0,8.0,99,0.02,,,0.54,meteohub,2013-04-03 12:23:00,
2013-04-03 07:28:00,48.6,48.4,30.10,NW,315,3.0,10.0,99,0.02,,,0.54,meteohub,2013-04-03 12:28:00,
2013-04-03 07:33:00,48.6,48.4,30.09,NE,45,7.0,10.0,99,0.02,,,0.54,meteohub,2013-04-03 12:33:00,
2013-04-03 07:38:00,48.2,47.7,30.10,North,0,7.0,10.0,98,0.02,,,0.54,meteohub,2013-04-03 12:38:00,
2013-04-03 07:43:00,48.2,47.7,30.10,NE,45,9.0,9.0,98,0.01,,,0.54,meteohub,2013-04-03 12:43:00,
2013-04-03 07:48:00,48.0,47.8,30.10,East,90,9.0,9.0,99,0.01,,,0.54,meteohub,2013-04-03 12:48:00,
2013-04-03 07:54:00,47.8,47.7,30.10,NE,45,7.0,9.0,99,0.01,,,0.54,meteohub,2013-04-03 12:54:00,
2013-04-03 07:59:00,47.5,46.9,30.10,NE,45,8.0,9.0,98,0.00,,,0.54,meteohub,2013-04-03 12:59:00,
2013-04-03 08:04:00,47.3,46.8,30.10,East,90,12.0,13.0,98,0.00,,,0.54,meteohub,2013-04-03 13:04:00,
2013-04-03 08:09:00,47.1,46.6,30.10,East,90,9.0,13.0,98,0.00,,,0.54,meteohub,2013-04-03 13:09:00,
2013-04-03 08:14:00,47.1,46.6,30.10,NE,45,7.0,13.0,98,0.00,,,0.54,meteohub,2013-04-03 13:14:00,
2013-04-03 08:19:00,47.3,46.8,30.09,North,0,8.0,12.0,98,0.00,,,0.54,meteohub,2013-04-03 13:19:00,
2013-04-03 08:24:00,47.1,46.6,30.10,NW,315,8.0,12.0,98,0.00,,,0.54,meteohub,2013-04-03 13:24:00,
2013-04-03 08:29:00,47.1,46.6,30.10,East,90,8.0,11.0,98,0.00,,,0.54,meteohub,2013-04-03 13:29:00,
2013-04-03 08:34:00,47.1,46.9,30.10,SW,225,4.0,11.0,99,0.00,,,0.54,meteohub,2013-04-03 13:34:00,
2013-04-03 08:39:00,47.1,46.9,30.10,NE,45,7.0,11.0,99,0.00,,,0.54,meteohub,2013-04-03 13:39:00,
2013-04-03 08:44:00,46.9,46.8,30.11,North,0,7.0,11.0,99,0.00,,,0.54,meteohub,2013-04-03 13:44:00,
2013-04-03 08:49:00,46.9,46.8,30.11,ENE,68,8.0,14.0,99,0.00,,,0.54,meteohub,2013-04-03 13:49:00,
2013-04-03 08:54:00,46.8,46.2,30.11,NNW,338,6.0,14.0,98,0.00,,,0.54,meteohub,2013-04-03 13:54:00,
2013-04-03 08:59:00,46.6,46.0,30.12,East,90,11.0,13.0,98,0.00,,,0.54,meteohub,2013-04-03 13:59:00,
2013-04-03 09:04:00,46.6,46.0,30.12,East,90,11.0,13.0,98,0.00,,,0.54,meteohub,2013-04-03 14:04:00,
2013-04-03 09:09:00,46.4,45.9,30.12,East,90,10.0,13.0,98,0.00,,,0.54,meteohub,2013-04-03 14:09:00,
2013-04-03 09:14:00,46.6,45.9,30.12,NE,45,6.0,11.0,97,0.00,,,0.54,meteohub,2013-04-03 14:14:00,
2013-04-03 09:19:00,46.8,46.0,30.12,NE,45,8.0,11.0,97,0.00,,,0.54,meteohub,2013-04-03 14:19:00,
2013-04-03 09:24:00,46.8,46.0,30.12,NE,45,8.0,11.0,97,0.00,,,0.54,meteohub,2013-04-03 14:24:00,
2013-04-03 09:29:00,46.8,46.0,30.13,NE,45,8.0,10.0,97,0.00,,,0.54,meteohub,2013-04-03 14:29:00,
2013-04-03 09:34:00,46.8,46.0,30.13,NE,45,8.0,9.0,97,0.00,,,0.54,meteohub,2013-04-03 14:34:00,
2013-04-03 09:39:00,46.8,46.0,30.13,NE,45,8.0,9.0,97,0.00,,,0.54,meteohub,2013-04-03 14:39:00,
2013-04-03 09:44:00,46.8,46.0,30.14,NE,45,8.0,8.0,97,0.00,,,0.54,meteohub,2013-04-03 14:44:00,
2013-04-03 09:49:00,46.8,46.0,30.14,NE,45,8.0,8.0,97,0.00,,,0.54,meteohub,2013-04-03 14:49:00,
2013-04-03 09:54:00,46.6,45.9,30.14,NE,45,6.0,8.0,97,0.00,,,0.54,meteohub,2013-04-03 14:54:00,
2013-04-03 09:59:00,46.6,45.9,30.14,NE,45,6.0,8.0,97,0.00,,,0.54,meteohub,2013-04-03 14:59:00,
2013-04-03 10:04:00,46.6,45.9,30.14,NE,45,6.0,8.0,97,0.00,,,0.54,meteohub,2013-04-03 15:04:00,
2013-04-03 10:18:00,46.6,45.1,30.14,NE,45,7.0,-999.0,95,0.00,,,0.54,meteohub,2013-04-03 15:18:00,
2013-04-03 10:23:00,46.6,45.1,30.14,North,0,6.0,-999.0,95,0.00,,,0.54,meteohub,2013-04-03 15:23:00,
2013-04-03 10:28:00,46.6,45.1,30.14,NE,45,6.0,7.0,95,0.00,,,0.54,meteohub,2013-04-03 15:28:00,
2013-04-03 10:33:00,46.8,45.3,30.14,East,90,7.0,7.0,95,0.00,,,0.54,meteohub,2013-04-03 15:33:00,
2013-04-03 10:38:00,46.8,45.3,30.14,North,0,8.0,8.0,95,0.00,,,0.54,meteohub,2013-04-03 15:38:00,
2013-04-03 10:43:00,46.9,45.5,30.14,North,0,4.0,8.0,95,0.00,,,0.54,meteohub,2013-04-03 15:43:00,
2013-04-03 10:48:00,46.9,45.5,30.14,North,0,7.0,8.0,95,0.00,,,0.54,meteohub,2013-04-03 15:48:00,
2013-04-03 10:53:00,47.1,45.5,30.14,North,0,8.0,9.0,94,0.00,,,0.54,meteohub,2013-04-03 15:53:00,
2013-04-03 10:58:00,47.1,45.5,30.14,NE,45,7.0,9.0,94,0.00,,,0.54,meteohub,2013-04-03 15:58:00,
2013-04-03 11:03:00,47.1,45.5,30.14,NE,45,11.0,11.0,94,0.00,,,0.54,meteohub,2013-04-03 16:03:00,
2013-04-03 11:08:00,47.3,45.3,30.14,North,0,5.0,11.0,93,0.00,,,0.54,meteohub,2013-04-03 16:08:00,
2013-04-03 11:13:00,47.3,45.7,30.14,North,0,4.0,11.0,94,0.00,,,0.54,meteohub,2013-04-03 16:13:00,
2013-04-03 11:18:00,47.3,45.3,30.15,North,0,4.0,11.0,93,0.00,,,0.54,meteohub,2013-04-03 16:18:00,
2013-04-03 11:23:00,47.5,45.5,30.15,NE,45,4.0,11.0,93,0.00,,,0.54,meteohub,2013-04-03 16:23:00,
2013-04-03 11:28:00,47.5,45.5,30.15,East,90,7.0,8.0,93,0.00,,,0.54,meteohub,2013-04-03 16:28:00,
2013-04-03 11:33:00,47.5,45.5,30.15,North,0,4.0,8.0,93,0.00,,,0.54,meteohub,2013-04-03 16:33:00,
2013-04-03 11:38:00,47.5,45.5,30.16,East,90,6.0,8.0,93,0.00,,,0.54,meteohub,2013-04-03 16:38:00,
2013-04-03 11:43:00,47.5,45.5,30.16,East,90,6.0,8.0,93,0.00,,,0.54,meteohub,2013-04-03 16:43:00,
2013-04-03 11:48:00,47.7,45.7,30.16,NE,45,9.0,9.0,93,0.00,,,0.54,meteohub,2013-04-03 16:48:00,
2013-04-03 11:53:00,47.5,45.5,30.16,NE,45,7.0,9.0,93,0.00,,,0.54,meteohub,2013-04-03 16:53:00,
2013-04-03 11:58:00,47.5,45.5,30.16,North,0,4.0,9.0,93,0.00,,,0.54,meteohub,2013-04-03 16:58:00,
2013-04-03 12:03:00,47.7,45.7,30.16,North,0,8.0,9.0,93,0.00,,,0.54,meteohub,2013-04-03 17:03:00,
2013-04-03 12:08:00,47.5,45.5,30.15,NE,45,7.0,8.0,93,0.00,,,0.54,meteohub,2013-04-03 17:08:00,
2013-04-03 12:13:00,47.7,45.7,30.14,NE,45,5.0,9.0,93,0.00,,,0.54,meteohub,2013-04-03 17:13:00,
2013-04-03 12:18:00,47.8,45.9,30.15,NW,315,8.0,9.0,93,0.00,,,0.54,meteohub,2013-04-03 17:18:00,
2013-04-03 12:23:00,47.7,45.7,30.14,North,0,3.0,9.0,93,0.00,,,0.54,meteohub,2013-04-03 17:23:00,
2013-04-03 12:29:00,47.8,46.2,30.14,North,0,6.0,8.0,94,0.00,,,0.54,meteohub,2013-04-03 17:29:00,
2013-04-03 12:34:00,47.7,46.0,30.13,East,90,4.0,8.0,94,0.00,,,0.54,meteohub,2013-04-03 17:34:00,
2013-04-03 12:40:00,47.5,45.9,30.14,NE,45,8.0,8.0,94,0.00,,,0.54,meteohub,2013-04-03 17:40:00,
2013-04-03 12:45:00,47.5,46.0,30.14,NE,45,6.0,9.0,95,0.00,,,0.54,meteohub,2013-04-03 17:45:00,
2013-04-03 12:50:00,47.5,46.0,30.14,NE,45,5.0,9.0,95,0.00,,,0.54,meteohub,2013-04-03 17:50:00,
2013-04-03 12:55:00,47.1,46.0,30.14,ENE,68,7.0,9.0,96,0.00,,,0.54,meteohub,2013-04-03 17:55:00,
2013-04-03 13:00:00,47.1,46.0,30.13,NE,45,5.0,9.0,96,0.00,,,0.54,meteohub,2013-04-03 18:00:00,
2013-04-03 13:05:00,47.5,46.8,30.13,NE,45,5.0,9.0,97,0.00,,,0.54,meteohub,2013-04-03 18:05:00,
2013-04-03 13:10:00,47.7,46.9,30.13,North,0,7.0,9.0,97,0.00,,,0.54,meteohub,2013-04-03 18:10:00,
2013-04-03 13:15:00,47.3,46.8,30.13,North,0,4.0,11.0,98,0.00,,,0.54,meteohub,2013-04-03 18:15:00,
2013-04-03 13:20:00,47.3,46.8,30.13,NE,45,9.0,11.0,98,0.00,,,0.54,meteohub,2013-04-03 18:20:00,
2013-04-03 13:25:00,47.5,46.9,30.12,NE,45,8.0,11.0,98,0.00,,,0.54,meteohub,2013-04-03 18:25:00,
2013-04-03 13:30:00,47.7,47.1,30.13,South,180,15.0,15.0,98,0.00,,,0.54,meteohub,2013-04-03 18:30:00,
2013-04-03 13:35:00,47.5,46.8,30.13,North,0,14.0,15.0,97,0.00,,,0.54,meteohub,2013-04-03 18:35:00,
2013-04-03 13:40:00,47.5,46.4,30.13,NE,45,5.0,15.0,96,0.00,,,0.54,meteohub,2013-04-03 18:40:00,
2013-04-03 13:45:00,47.7,46.2,30.13,East,90,5.0,15.0,95,0.00,,,0.54,meteohub,2013-04-03 18:45:00,
2013-04-03 13:50:00,47.8,46.4,30.12,NE,45,5.0,14.0,95,0.00,,,0.54,meteohub,2013-04-03 18:50:00,
2013-04-03 13:55:00,48.0,46.6,30.12,ENE,68,9.0,10.0,95,0.00,,,0.54,meteohub,2013-04-03 18:55:00,
2013-04-03 14:00:00,48.2,46.2,30.12,NE,45,8.0,9.0,93,0.00,,,0.54,meteohub,2013-04-03 19:00:00,
2013-04-03 14:05:00,48.0,46.4,30.12,East,90,5.0,11.0,94,0.00,,,0.54,meteohub,2013-04-03 19:05:00,
2013-04-03 14:10:00,47.8,45.9,30.12,NE,45,5.0,11.0,93,0.00,,,0.54,meteohub,2013-04-03 19:10:00,
2013-04-03 14:15:00,47.8,45.9,30.12,East,90,7.0,11.0,93,0.00,,,0.54,meteohub,2013-04-03 19:15:00,
2013-04-03 14:20:00,48.0,46.0,30.12,NE,45,4.0,12.0,93,0.00,,,0.54,meteohub,2013-04-03 19:20:00,
2013-04-03 14:25:00,48.0,46.0,30.12,NE,45,9.0,12.0,93,0.00,,,0.54,meteohub,2013-04-03 19:25:00,
2013-04-03 14:30:00,48.0,45.9,30.12,NE,45,7.0,12.0,92,0.00,,,0.54,meteohub,2013-04-03 19:30:00,
2013-04-03 14:35:00,48.2,45.7,30.12,East,90,3.0,12.0,91,0.00,,,0.54,meteohub,2013-04-03 19:35:00,
2013-04-03 14:40:00,48.0,45.5,30.12,East,90,7.0,12.0,91,0.00,,,0.54,meteohub,2013-04-03 19:40:00,
2013-04-03 14:45:00,48.2,45.1,30.12,North,0,7.0,11.0,89,0.00,,,0.54,meteohub,2013-04-03 19:45:00,
2013-04-03 14:50:00,48.4,45.3,30.13,East,90,2.0,11.0,89,0.00,,,0.54,meteohub,2013-04-03 19:50:00,
2013-04-03 14:56:00,48.6,45.5,30.12,NE,45,6.0,7.0,89,0.00,,,0.54,meteohub,2013-04-03 19:56:00,
2013-04-03 15:01:00,48.6,45.1,30.12,North,0,3.0,7.0,88,0.00,,,0.54,meteohub,2013-04-03 20:01:00,
2013-04-03 15:06:00,48.6,45.1,30.13,North,0,3.0,6.0,88,0.00,,,0.54,meteohub,2013-04-03 20:06:00,
2013-04-03 15:12:00,48.2,44.8,30.13,West,270,4.0,6.0,88,0.00,,,0.54,meteohub,2013-04-03 20:12:00,
2013-04-03 15:17:00,48.2,44.8,30.13,NE,45,7.0,7.0,88,0.00,,,0.54,meteohub,2013-04-03 20:17:00,
2013-04-03 15:22:00,48.2,44.8,30.13,NE,45,7.0,7.0,88,0.00,,,0.54,meteohub,2013-04-03 20:22:00,
2013-04-03 15:27:00,48.0,45.0,30.13,NE,45,4.0,7.0,89,0.00,,,0.54,meteohub,2013-04-03 20:27:00,
2013-04-03 15:32:00,48.0,45.0,30.14,North,0,3.0,7.0,89,0.00,,,0.54,meteohub,2013-04-03 20:32:00,
2013-04-03 15:37:00,48.4,45.3,30.14,NE,45,4.0,7.0,89,0.00,,,0.54,meteohub,2013-04-03 20:37:00,
2013-04-03 15:42:00,48.4,45.3,30.14,SE,135,4.0,7.0,89,0.00,,,0.54,meteohub,2013-04-03 20:42:00,
2013-04-03 15:47:00,48.4,45.3,30.14,North,0,4.0,5.0,89,0.00,,,0.54,meteohub,2013-04-03 20:47:00,
2013-04-03 15:52:00,48.2,45.3,30.14,NW,315,2.0,5.0,90,0.00,,,0.54,meteohub,2013-04-03 20:52:00,
2013-04-03 15:57:00,48.0,45.5,30.14,NW,315,2.0,5.0,91,0.00,,,0.54,meteohub,2013-04-03 20:57:00,
2013-04-03 16:02:00,48.0,45.9,30.15,North,0,2.0,4.0,92,0.00,,,0.54,meteohub,2013-04-03 21:02:00,
2013-04-03 16:07:00,48.2,45.7,30.15,North,0,6.0,6.0,91,0.00,,,0.54,meteohub,2013-04-03 21:07:00,
2013-04-03 16:12:00,47.8,45.9,30.14,NE,45,3.0,6.0,93,0.00,,,0.54,meteohub,2013-04-03 21:12:00,
2013-04-03 16:17:00,47.7,45.7,30.14,North,0,4.0,6.0,93,0.00,,,0.54,meteohub,2013-04-03 21:17:00,
2013-04-03 16:22:00,47.7,46.0,30.14,North,0,5.0,6.0,94,0.00,,,0.54,meteohub,2013-04-03 21:22:00,
2013-04-03 16:27:00,47.5,45.9,30.14,North,0,4.0,5.0,94,0.00,,,0.54,meteohub,2013-04-03 21:27:00,
2013-04-03 16:33:00,47.7,46.2,30.13,North,0,2.0,5.0,95,0.00,,,0.54,meteohub,2013-04-03 21:33:00,
2013-04-03 16:38:00,47.7,46.2,30.13,NE,45,3.0,5.0,95,0.00,,,0.54,meteohub,2013-04-03 21:38:00,
2013-04-03 16:43:00,47.7,46.6,30.13,NE,45,2.0,5.0,96,0.01,,,0.56,meteohub,2013-04-03 21:43:00,
2013-04-03 16:48:00,47.7,46.6,30.12,NE,45,2.0,5.0,96,0.01,,,0.56,meteohub,2013-04-03 21:48:00,
2013-04-03 16:53:00,47.7,46.9,30.11,North,0,8.0,8.0,97,0.01,,,0.56,meteohub,2013-04-03 21:53:00,
2013-04-03 16:58:00,47.3,46.8,30.10,NE,45,7.0,8.0,98,0.01,,,0.56,meteohub,2013-04-03 21:58:00,
2013-04-03 17:03:00,47.3,46.8,30.07,NE,45,7.0,10.0,98,0.01,,,0.56,meteohub,2013-04-03 22:03:00,
2013-04-03 17:08:00,47.1,46.9,30.09,East,90,6.0,10.0,99,0.01,,,0.56,meteohub,2013-04-03 22:08:00,
2013-04-03 17:13:00,47.1,46.9,30.12,NW,315,8.0,10.0,99,0.05,,,0.59,meteohub,2013-04-03 22:13:00,
2013-04-03 17:18:00,47.3,47.1,30.11,East,90,4.0,8.0,99,0.06,,,0.60,meteohub,2013-04-03 22:18:00,
2013-04-03 17:23:00,47.3,47.1,30.12,North,0,4.0,8.0,99,0.06,,,0.60,meteohub,2013-04-03 22:23:00,
2013-04-03 17:28:00,47.3,47.1,30.12,NE,45,3.0,8.0,99,0.07,,,0.61,meteohub,2013-04-03 22:28:00,
2013-04-03 17:33:00,47.3,47.1,30.11,North,0,5.0,6.0,99,0.08,,,0.63,meteohub,2013-04-03 22:33:00,
2013-04-03 17:38:00,47.3,47.1,30.12,North,0,2.0,5.0,99,0.08,,,0.64,meteohub,2013-04-03 22:38:00,
2013-04-03 17:43:00,47.7,47.5,30.12,NE,45,3.0,5.0,99,0.08,,,0.64,meteohub,2013-04-03 22:43:00,
2013-04-03 17:48:00,47.5,47.3,30.11,North,0,3.0,5.0,99,0.08,,,0.64,meteohub,2013-04-03 22:48:00,
2013-04-03 17:53:00,47.8,47.7,30.12,NW,315,4.0,4.0,99,0.09,,,0.65,meteohub,2013-04-03 22:53:00,
2013-04-03 17:58:00,47.8,47.7,30.12,North,0,3.0,4.0,99,0.09,,,0.65,meteohub,2013-04-03 22:58:00,
2013-04-03 18:03:00,47.7,47.5,30.11,North,0,5.0,5.0,99,0.11,,,0.66,meteohub,2013-04-03 23:03:00,
2013-04-03 18:08:00,47.7,47.5,30.11,North,0,5.0,7.0,99,0.11,,,0.66,meteohub,2013-04-03 23:08:00,
2013-04-03 18:13:00,47.5,47.3,30.12,NW,315,6.0,7.0,99,0.06,,,0.66,meteohub,2013-04-03 23:13:00,
2013-04-03 18:18:00,47.5,47.3,30.12,NW,315,4.0,6.0,99,0.06,,,0.66,meteohub,2013-04-03 23:18:00,
2013-04-03 18:23:00,47.5,47.3,30.12,NW,315,4.0,6.0,99,0.06,,,0.67,meteohub,2013-04-03 23:23:00,
2013-04-03 18:28:00,47.3,47.1,30.14,West,270,4.0,6.0,99,0.06,,,0.67,meteohub,2013-04-03 23:28:00,
2013-04-03 18:33:00,47.3,47.1,30.14,NW,315,4.0,6.0,99,0.06,,,0.69,meteohub,2013-04-03 23:33:00,
2013-04-03 18:38:00,47.3,47.1,30.13,North,0,4.0,8.0,99,0.05,,,0.69,meteohub,2013-04-03 23:38:00,
2013-04-03 18:43:00,47.3,47.1,30.13,NW,315,3.0,8.0,99,0.06,,,0.70,meteohub,2013-04-03 23:43:00,
2013-04-03 18:48:00,47.3,47.1,30.14,North,0,4.0,8.0,99,0.07,,,0.71,meteohub,2013-04-03 23:48:00,
2013-04-03 18:54:00,47.1,46.9,30.14,NW,315,5.0,5.0,99,0.06,,,0.71,meteohub,2013-04-03 23:54:00,
2013-04-03 18:59:00,47.3,47.1,30.13,NE,45,5.0,8.0,99,0.05,,,0.71,meteohub,2013-04-03 23:59:00,
2013-04-03 19:04:00,46.9,46.8,30.13,NE,45,7.0,8.0,99,0.05,,,0.71,meteohub,2013-04-04 00:04:00,
2013-04-03 19:09:00,46.6,46.4,30.13,NW,315,4.0,8.0,99,0.05,,,0.71,meteohub,2013-04-04 00:09:00,
2013-04-03 19:14:00,46.4,46.2,30.13,North,0,6.0,14.0,99,0.05,,,0.71,meteohub,2013-04-04 00:14:00,
2013-04-03 19:19:00,46.2,45.5,30.13,North,0,8.0,14.0,97,0.05,,,0.71,meteohub,2013-04-04 00:19:00,
2013-04-03 19:24:00,46.2,45.5,30.13,NW,315,6.0,14.0,97,0.04,,,0.71,meteohub,2013-04-04 00:24:00,
2013-04-03 19:29:00,46.2,45.5,30.13,West,270,5.0,11.0,97,0.04,,,0.71,meteohub,2013-04-04 00:29:00,
2013-04-03 19:34:00,46.0,45.3,30.13,North,0,9.0,10.0,97,0.02,,,0.71,meteohub,2013-04-04 00:34:00,
2013-04-03 19:39:00,46.0,45.3,30.13,North,0,10.0,11.0,97,0.01,,,0.71,meteohub,2013-04-04 00:39:00,
2013-04-03 19:44:00,45.9,45.1,30.14,NE,45,8.0,11.0,97,0.00,,,0.71,meteohub,2013-04-04 00:44:00,
2013-04-03 19:49:00,45.7,45.0,30.13,North,0,10.0,11.0,97,0.00,,,0.71,meteohub,2013-04-04 00:49:00,
2013-04-03 19:54:00,45.7,45.0,30.13,North,0,10.0,11.0,97,0.00,,,0.71,meteohub,2013-04-04 00:54:00,
2013-04-03 19:59:00,45.5,44.8,30.14,NW,315,7.0,11.0,97,0.00,,,0.71,meteohub,2013-04-04 00:59:00,
2013-04-03 20:04:00,45.5,44.8,30.14,WNW,293,9.0,11.0,97,0.00,,,0.71,meteohub,2013-04-04 01:04:00,
2013-04-03 20:10:00,45.3,44.6,30.15,NE,45,7.0,10.0,97,0.00,,,0.71,meteohub,2013-04-04 01:10:00,
2013-04-03 20:15:00,45.3,44.6,30.15,North,0,7.0,10.0,97,0.00,,,0.71,meteohub,2013-04-04 01:15:00,
2013-04-03 20:20:00,45.3,44.6,30.16,NE,45,7.0,9.0,97,0.00,,,0.71,meteohub,2013-04-04 01:20:00,
2013-04-03 20:25:00,45.0,44.2,30.16,West,270,5.0,8.0,97,0.00,,,0.71,meteohub,2013-04-04 01:25:00,
2013-04-03 20:30:00,45.1,44.4,30.15,NE,45,5.0,8.0,97,0.00,,,0.71,meteohub,2013-04-04 01:30:00,
2013-04-03 20:35:00,45.1,44.4,30.16,NW,315,5.0,8.0,97,0.00,,,0.71,meteohub,2013-04-04 01:35:00,
2013-04-03 20:40:00,45.1,44.4,30.16,North,0,3.0,7.0,97,0.00,,,0.71,meteohub,2013-04-04 01:40:00,
2013-04-03 20:45:00,45.1,44.4,30.16,NW,315,4.0,7.0,97,0.00,,,0.72,meteohub,2013-04-04 01:45:00,
2013-04-03 20:50:00,44.8,44.1,30.17,NW,315,4.0,7.0,97,0.01,,,0.72,meteohub,2013-04-04 01:50:00,
2013-04-03 20:55:00,44.8,44.1,30.17,NW,315,6.0,7.0,97,0.01,,,0.72,meteohub,2013-04-04 01:55:00,
2013-04-03 21:00:00,44.6,43.9,30.15,North,0,4.0,9.0,97,0.01,,,0.72,meteohub,2013-04-04 02:00:00,
2013-04-03 21:05:00,44.6,43.9,30.16,North,0,6.0,10.0,97,0.02,,,0.73,meteohub,2013-04-04 02:05:00,
2013-04-03 21:10:00,44.6,43.9,30.17,NE,45,3.0,10.0,97,0.02,,,0.73,meteohub,2013-04-04 02:10:00,
2013-04-03 21:15:00,44.4,43.9,30.16,East,90,5.0,10.0,98,0.02,,,0.73,meteohub,2013-04-04 02:15:00,
2013-04-03 21:20:00,44.4,43.9,30.17,East,90,5.0,8.0,98,0.02,,,0.73,meteohub,2013-04-04 02:20:00,
2013-04-03 21:25:00,44.2,43.7,30.17,NNW,338,4.0,8.0,98,0.02,,,0.73,meteohub,2013-04-04 02:25:00,
2013-04-03 21:30:00,44.6,43.9,30.17,North,0,4.0,6.0,97,0.04,,,0.74,meteohub,2013-04-04 02:30:00,
2013-04-03 21:35:00,44.6,43.9,30.17,NE,45,7.0,7.0,97,0.04,,,0.74,meteohub,2013-04-04 02:35:00,
2013-04-03 21:40:00,44.6,43.9,30.18,NW,315,3.0,7.0,97,0.04,,,0.74,meteohub,2013-04-04 02:40:00,
2013-04-03 21:45:00,44.6,43.9,30.18,North,0,4.0,7.0,97,0.02,,,0.74,meteohub,2013-04-04 02:45:00,
2013-04-03 21:50:00,44.8,44.1,30.18,NW,315,4.0,7.0,97,0.02,,,0.74,meteohub,2013-04-04 02:50:00,
2013-04-03 21:55:00,44.8,44.1,30.19,North,0,5.0,5.0,97,0.02,,,0.74,meteohub,2013-04-04 02:55:00,
2013-04-03 22:00:00,44.6,43.9,30.19,NW,315,4.0,5.0,97,0.02,,,0.74,meteohub,2013-04-04 03:00:00,
2013-04-03 22:05:00,44.8,44.1,30.19,North,0,3.0,5.0,97,0.01,,,0.74,meteohub,2013-04-04 03:05:00,
2013-04-03 22:10:00,44.8,44.1,30.19,NW,315,5.0,5.0,97,0.01,,,0.74,meteohub,2013-04-04 03:10:00,
2013-04-03 22:15:00,44.8,44.1,30.20,North,0,3.0,5.0,97,0.01,,,0.74,meteohub,2013-04-04 03:15:00,
2013-04-03 22:20:00,44.8,44.1,30.19,North,0,4.0,5.0,97,0.01,,,0.74,meteohub,2013-04-04 03:20:00,
2013-04-03 22:25:00,44.8,44.1,30.19,NE,45,3.0,5.0,97,0.00,,,0.74,meteohub,2013-04-04 03:25:00,
2013-04-03 22:30:00,44.6,43.9,30.19,North,0,4.0,6.0,97,0.00,,,0.74,meteohub,2013-04-04 03:30:00,
2013-04-03 22:35:00,44.8,44.1,30.20,NW,315,2.0,6.0,97,0.00,,,0.74,meteohub,2013-04-04 03:35:00,
2013-04-03 22:40:00,44.8,44.1,30.19,NW,315,3.0,6.0,97,0.00,,,0.74,meteohub,2013-04-04 03:40:00,
2013-04-03 22:45:00,44.6,43.9,30.20,North,0,3.0,4.0,97,0.00,,,0.74,meteohub,2013-04-04 03:45:00,
2013-04-03 22:50:00,44.6,43.9,30.20,North,0,2.0,4.0,97,0.01,,,0.76,meteohub,2013-04-04 03:50:00,
2013-04-03 22:55:00,44.2,43.7,30.20,NW,315,3.0,4.0,98,0.02,,,0.77,meteohub,2013-04-04 03:55:00,
2013-04-03 23:00:00,44.6,43.9,30.20,NW,315,4.0,4.0,97,0.02,,,0.77,meteohub,2013-04-04 04:00:00,
2013-04-03 23:02:00,44.6,43.9,30.21,NW,315,4.0,4.0,97,0.02,,,0.77,meteohub,2013-04-04 04:02:00,
2013-04-03 23:07:00,44.6,43.9,30.20,NW,315,4.0,4.0,97,0.02,,,0.77,meteohub,2013-04-04 04:07:00,
2013-04-03 23:12:00,44.6,43.9,30.20,NW,315,5.0,5.0,97,0.02,,,0.77,meteohub,2013-04-04 04:12:00,
2013-04-03 23:17:00,44.2,43.7,30.19,NE,45,4.0,5.0,98,0.02,,,0.77,meteohub,2013-04-04 04:17:00,
2013-04-03 23:22:00,43.7,43.2,30.20,NW,315,4.0,5.0,98,0.02,,,0.77,meteohub,2013-04-04 04:22:00,
2013-04-03 23:27:00,43.9,43.3,30.19,NW,315,4.0,5.0,98,0.04,,,0.78,meteohub,2013-04-04 04:27:00,
2013-04-03 23:32:00,43.7,43.2,30.20,NW,315,4.0,4.0,98,0.05,,,0.79,meteohub,2013-04-04 04:32:00,
2013-04-03 23:37:00,43.5,43.0,30.20,North,0,4.0,4.0,98,0.06,,,0.80,meteohub,2013-04-04 04:37:00,
2013-04-03 23:42:00,43.5,43.0,30.20,NW,315,4.0,4.0,98,0.06,,,0.80,meteohub,2013-04-04 04:42:00,
2013-04-03 23:47:00,43.5,43.0,30.20,NW,315,5.0,5.0,98,0.05,,,0.80,meteohub,2013-04-04 04:47:00,
2013-04-03 23:52:00,43.3,42.8,30.20,NW,315,2.0,5.0,98,0.04,,,0.80,meteohub,2013-04-04 04:52:00,
2013-04-03 23:57:00,43.3,42.8,30.19,NW,315,2.0,5.0,98,0.04,,,0.80,meteohub,2013-04-04 04:57:00,